Time;durP1;ratioP1;P1;durP2;ratioP2;P2;SDS_P1;SDS_P2;PMS_P1;PMS_P2;Temp;Humidity;BMP_temperature;BMP_pressure;BME280_temperature;BME280_humidity;BME280_pressure;Samples;Min_cycle;Max_cycle;Signal;HPM_P1;HPM_P2
2022/02/20 00:02:07;;;;;;;15.60;7.40;;;5.10;99.90;;;;;;5033185;28;20037;-89
2022/02/20 00:04:33;;;;;;;11.98;6.60;;;4.90;99.90;;;;;;5033005;28;20033;-89
2022/02/20 00:06:58;;;;;;;13.02;7.10;;;4.90;99.90;;;;;;5016716;28;20464;-89
2022/02/20 00:09:24;;;;;;;13.35;6.68;;;5.20;99.90;;;;;;5033184;28;20026;-89
2022/02/20 00:11:50;;;;;;;13.20;6.22;;;5.30;99.90;;;;;;5032974;28;20406;-89
2022/02/20 00:14:15;;;;;;;15.25;7.07;;;5.10;99.90;;;;;;5018116;28;20025;-89
2022/02/20 00:16:41;;;;;;;13.13;6.45;;;5.50;99.90;;;;;;5033506;28;20071;-89
2022/02/20 00:19:07;;;;;;;15.70;7.43;;;5.50;99.90;;;;;;5032933;28;20107;-89
2022/02/20 00:21:33;;;;;;;12.98;7.30;;;5.00;99.90;;;;;;5016400;28;20112;-89
2022/02/20 00:23:59;;;;;;;14.80;7.35;;;5.40;99.90;;;;;;5015366;28;20413;-89
2022/02/20 00:26:24;;;;;;;10.45;6.75;;;4.90;99.90;;;;;;5015312;28;20029;-89
2022/02/20 00:28:50;;;;;;;13.88;7.32;;;5.00;99.90;;;;;;5022297;28;20121;-89
2022/02/20 00:31:16;;;;;;;15.63;7.55;;;5.10;99.90;;;;;;5032594;28;20033;-89
2022/02/20 00:33:41;;;;;;;13.18;7.18;;;4.90;99.90;;;;;;5032591;28;20033;-89
2022/02/20 00:36:07;;;;;;;12.13;6.68;;;4.80;99.90;;;;;;5032459;28;20518;-89
2022/02/20 00:38:32;;;;;;;12.70;6.35;;;4.90;99.90;;;;;;5033154;28;20033;-89
2022/02/20 00:40:58;;;;;;;16.13;7.07;;;5.10;99.90;;;;;;5015874;28;20064;-89
2022/02/20 00:43:24;;;;;;;11.55;6.57;;;5.10;99.90;;;;;;5032516;28;20041;-89
2022/02/20 00:45:49;;;;;;;17.65;7.00;;;5.30;99.90;;;;;;5032822;28;20025;-89
2022/02/20 00:48:19;;;;;;;13.45;7.95;;;5.20;99.90;;;;;;5032406;28;20368;-89
2022/02/20 00:50:45;;;;;;;16.50;7.97;;;5.30;99.90;;;;;;5028802;28;20053;-89
2022/02/20 00:53:11;;;;;;;12.88;7.95;;;5.20;99.90;;;;;;5016103;28;20037;-89
2022/02/20 00:55:37;;;;;;;15.55;7.53;;;5.10;99.90;;;;;;5032060;28;20021;-89
2022/02/20 00:58:02;;;;;;;13.40;7.10;;;5.00;99.90;;;;;;5032177;28;20045;-89
2022/02/20 01:00:28;;;;;;;13.57;6.97;;;4.90;99.90;;;;;;5015712;28;20017;-89
2022/02/20 01:02:54;;;;;;;13.68;6.47;;;5.60;99.90;;;;;;5014532;28;20037;-89
2022/02/20 01:05:20;;;;;;;10.68;5.78;;;5.80;99.90;;;;;;5032610;28;20025;-89
2022/02/20 01:07:46;;;;;;;10.50;5.50;;;5.60;99.90;;;;;;5032012;28;20021;-89
2022/02/20 01:10:15;;;;;;;10.93;6.18;;;5.90;99.90;;;;;;5017142;28;20026;-89
2022/02/20 01:12:41;;;;;;;9.70;5.88;;;6.20;99.90;;;;;;5032245;28;20063;-89
2022/02/20 01:15:08;;;;;;;9.90;6.00;;;5.70;99.90;;;;;;5014389;28;20073;-89
2022/02/20 01:17:34;;;;;;;9.00;5.57;;;5.70;99.90;;;;;;5014809;28;20032;-90
2022/02/20 01:20:00;;;;;;;12.30;5.95;;;5.60;99.90;;;;;;5031800;28;20394;-89
2022/02/20 01:22:26;;;;;;;13.25;6.22;;;5.90;99.90;;;;;;5031886;28;20026;-88
2022/02/20 01:24:51;;;;;;;12.00;6.57;;;5.30;99.90;;;;;;5016513;28;20040;-89
2022/02/20 01:27:17;;;;;;;11.35;6.30;;;5.60;99.90;;;;;;5031872;28;20021;-89
2022/02/20 01:29:43;;;;;;;12.27;6.45;;;5.70;99.90;;;;;;4995462;28;20029;-89
2022/02/20 01:32:09;;;;;;;10.48;5.30;;;5.60;99.90;;;;;;5031168;28;20137;-89
2022/02/20 01:34:34;;;;;;;10.82;5.20;;;5.40;99.90;;;;;;5014627;28;20075;-89
2022/02/20 01:37:00;;;;;;;6.43;4.93;;;5.50;99.90;;;;;;5031164;28;20049;-89
2022/02/20 01:39:26;;;;;;;8.55;4.90;;;5.70;99.90;;;;;;5032189;28;20029;-89
2022/02/20 01:41:53;;;;;;;9.15;5.28;;;5.60;99.90;;;;;;5031803;28;20068;-89
2022/02/20 01:44:20;;;;;;;9.68;4.93;;;5.60;1.00;;;;;;5031010;28;20177;-89
2022/02/20 01:46:48;;;;;;;7.03;4.63;;;5.30;99.90;;;;;;5031205;28;20053;-89
2022/02/20 01:49:15;;;;;;;11.15;4.63;;;5.00;99.90;;;;;;5031295;28;20387;-89
2022/02/20 01:51:41;;;;;;;10.77;5.35;;;5.00;99.90;;;;;;5031586;28;20393;-89
2022/02/20 01:54:07;;;;;;;10.18;5.53;;;5.10;99.90;;;;;;5013941;28;20074;-89
2022/02/20 01:56:33;;;;;;;9.63;5.57;;;5.60;99.90;;;;;;5031989;28;20049;-89
2022/02/20 01:59:00;;;;;;;10.38;5.78;;;5.00;99.90;;;;;;5031186;28;20021;-89
2022/02/20 02:01:25;;;;;;;12.38;6.05;;;5.30;99.90;;;;;;5031123;28;20022;-90
2022/02/20 02:03:51;;;;;;;8.90;5.50;;;5.20;99.90;;;;;;5016743;28;20371;-89
2022/02/20 02:06:17;;;;;;;12.55;4.95;;;5.20;99.90;;;;;;5013691;28;20035;-89
2022/02/20 02:08:42;;;;;;;7.95;4.70;;;5.30;99.90;;;;;;5032338;28;20134;-89
2022/02/20 02:11:09;;;;;;;8.43;4.95;;;5.50;99.90;;;;;;5031064;28;20028;-89
2022/02/20 02:13:37;;;;;;;11.00;4.80;;;5.50;99.90;;;;;;5016328;28;20025;-89
2022/02/20 02:16:03;;;;;;;10.88;4.63;;;6.10;99.90;;;;;;5016335;28;20021;-89
2022/02/20 02:18:28;;;;;;;9.50;4.43;;;5.60;99.90;;;;;;5015336;28;20482;-89
2022/02/20 02:20:54;;;;;;;10.88;4.95;;;5.50;1.00;;;;;;5029776;28;20437;-89
2022/02/20 02:23:20;;;;;;;10.70;4.60;;;5.70;99.90;;;;;;5031618;28;20036;-89
2022/02/20 02:25:49;;;;;;;10.73;5.00;;;5.60;99.90;;;;;;5031518;28;20499;-89
2022/02/20 02:28:15;;;;;;;8.20;5.13;;;6.00;99.90;;;;;;5014785;28;20056;-89
2022/02/20 02:30:41;;;;;;;9.43;4.85;;;6.00;99.90;;;;;;5031502;28;20060;-90
2022/02/20 02:33:07;;;;;;;10.55;4.65;;;5.60;99.90;;;;;;5030959;28;20120;-89
2022/02/20 02:35:33;;;;;;;10.50;5.05;;;5.60;99.90;;;;;;5031378;28;20053;-90
2022/02/20 02:37:59;;;;;;;10.73;4.43;;;5.70;99.90;;;;;;5031092;28;20529;-89
2022/02/20 02:40:24;;;;;;;7.80;4.32;;;5.70;1.00;;;;;;5031127;28;20509;-90
2022/02/20 02:42:50;;;;;;;10.27;4.13;;;5.70;99.90;;;;;;5031088;28;20040;-90
2022/02/20 02:45:16;;;;;;;8.00;4.60;;;5.80;99.90;;;;;;5032484;28;20025;-90
2022/02/20 02:47:46;;;;;;;9.90;4.75;;;5.70;99.90;;;;;;5035598;28;20025;-90
2022/02/20 02:50:12;;;;;;;10.00;4.40;;;5.80;99.90;;;;;;5033293;28;20029;-89
2022/02/20 02:52:38;;;;;;;11.07;4.40;;;5.70;99.90;;;;;;5034794;28;20037;-90
2022/02/20 02:55:05;;;;;;;10.57;5.15;;;5.80;99.90;;;;;;5018123;28;20548;-89
2022/02/20 02:57:31;;;;;;;9.23;4.90;;;6.00;99.90;;;;;;5018608;28;20031;-90
2022/02/20 02:59:58;;;;;;;12.15;5.28;;;5.90;99.90;;;;;;5034545;28;20033;-90
2022/02/20 03:02:24;;;;;;;9.52;4.63;;;6.50;99.90;;;;;;5034984;28;20049;-89
2022/02/20 03:04:50;;;;;;;11.55;4.80;;;6.20;99.90;;;;;;5034282;28;20045;-90
2022/02/20 03:07:15;;;;;;;11.38;6.30;;;6.30;99.90;;;;;;5034426;28;20025;-90
2022/02/20 03:09:41;;;;;;;12.95;6.93;;;5.90;99.90;;;;;;5034872;28;20447;-89
2022/02/20 03:12:08;;;;;;;11.52;6.13;;;5.80;99.90;;;;;;5034164;28;20045;-90
2022/02/20 03:14:34;;;;;;;12.02;6.30;;;5.80;99.90;;;;;;5034839;28;20486;-89
2022/02/20 03:17:00;;;;;;;11.35;6.25;;;5.80;99.90;;;;;;5034412;28;20095;-90
2022/02/20 03:19:26;;;;;;;9.00;4.22;;;6.20;99.90;;;;;;5016952;28;20535;-89
2022/02/20 03:21:52;;;;;;;9.77;4.85;;;5.70;99.90;;;;;;5034192;28;20029;-90
2022/02/20 03:24:17;;;;;;;11.43;4.80;;;5.70;99.90;;;;;;5034273;28;20081;-90
2022/02/20 03:26:43;;;;;;;12.82;5.00;;;6.30;99.90;;;;;;5034571;28;20029;-89
2022/02/20 03:29:09;;;;;;;10.95;5.25;;;5.80;99.90;;;;;;5034247;28;20062;-90
2022/02/20 03:31:34;;;;;;;10.32;5.40;;;6.00;99.90;;;;;;5017309;28;20116;-90
2022/02/20 03:34:00;;;;;;;10.40;5.80;;;6.30;99.90;;;;;;5033570;28;20658;-90
2022/02/20 03:36:26;;;;;;;9.70;4.78;;;6.10;99.90;;;;;;5034024;28;20046;-90
2022/02/20 03:38:51;;;;;;;10.80;5.15;;;6.60;99.90;;;;;;5034103;28;20064;-90
2022/02/20 03:41:17;;;;;;;9.65;5.78;;;6.30;99.90;;;;;;5034012;28;20029;-91
2022/02/20 03:43:43;;;;;;;11.68;5.65;;;6.70;99.90;;;;;;5034348;28;20036;-90
2022/02/20 03:46:09;;;;;;;10.60;5.10;;;6.40;99.90;;;;;;5017446;28;20120;-90
2022/02/20 03:48:35;;;;;;;9.10;5.40;;;6.10;99.90;;;;;;5033516;28;20079;-90
2022/02/20 03:51:00;;;;;;;9.32;5.40;;;6.00;99.90;;;;;;5034154;28;20036;-90
2022/02/20 03:53:26;;;;;;;8.65;4.00;;;6.00;99.90;;;;;;5034040;28;20040;-90
2022/02/20 03:55:52;;;;;;;9.85;5.07;;;6.40;99.90;;;;;;5033432;28;20059;-90
2022/02/20 03:58:18;;;;;;;8.13;4.88;;;5.90;99.90;;;;;;5016604;28;20061;-90
2022/02/20 04:00:43;;;;;;;11.88;5.28;;;6.10;99.90;;;;;;5018998;28;20552;-90
2022/02/20 04:03:09;;;;;;;9.82;5.40;;;6.40;99.90;;;;;;5015503;28;20044;-89
2022/02/20 04:05:35;;;;;;;11.50;6.50;;;5.80;99.90;;;;;;5016358;28;20526;-90
2022/02/20 04:08:00;;;;;;;13.80;5.65;;;5.70;99.90;;;;;;5033343;28;20397;-90
2022/02/20 04:10:26;;;;;;;6.78;4.18;;;5.60;99.90;;;;;;5017025;28;20033;-90
2022/02/20 04:12:51;;;;;;;10.00;4.18;;;6.20;99.90;;;;;;5016801;28;20053;-90
2022/02/20 04:15:17;;;;;;;9.73;4.60;;;5.90;99.90;;;;;;5016363;28;20021;-89
2022/02/20 04:17:48;;;;;;;10.55;4.93;;;6.50;99.90;;;;;;5033572;28;20022;-90
2022/02/20 04:20:15;;;;;;;10.05;4.93;;;6.10;99.90;;;;;;5032798;28;20047;-90
2022/02/20 04:22:43;;;;;;;9.85;4.90;;;6.40;99.90;;;;;;5033178;28;20547;-90
2022/02/20 04:25:09;;;;;;;11.88;5.13;;;6.10;99.90;;;;;;5018016;28;20413;-90
2022/02/20 04:27:36;;;;;;;8.20;4.50;;;6.30;99.90;;;;;;5033143;28;20029;-90
2022/02/20 04:30:03;;;;;;;8.20;3.95;;;6.30;99.90;;;;;;5032878;28;20396;-91
2022/02/20 04:32:29;;;;;;;6.03;3.15;;;6.50;99.90;;;;;;5033320;28;20489;-90
2022/02/20 04:34:55;;;;;;;8.57;3.75;;;7.00;99.90;;;;;;5033369;28;20029;-90
2022/02/20 04:37:20;;;;;;;7.43;3.65;;;6.80;99.90;;;;;;5032565;28;20047;-90
2022/02/20 04:39:46;;;;;;;13.32;5.40;;;7.20;99.90;;;;;;5032886;28;20029;-90
2022/02/20 04:42:11;;;;;;;9.52;4.47;;;6.80;99.90;;;;;;5033071;28;20018;-90
2022/02/20 04:44:37;;;;;;;13.55;6.28;;;7.00;99.90;;;;;;5033436;28;20482;-90
2022/02/20 04:47:03;;;;;;;10.23;5.55;;;6.80;99.90;;;;;;5032569;28;20037;-91
2022/02/20 04:49:29;;;;;;;15.23;5.68;;;6.20;99.90;;;;;;5032397;28;20024;-90
2022/02/20 04:51:54;;;;;;;10.68;5.05;;;6.20;99.90;;;;;;5032348;28;20041;-90
2022/02/20 04:54:20;;;;;;;9.73;5.25;;;6.70;99.90;;;;;;5032944;28;20172;-91
2022/02/20 04:56:46;;;;;;;9.73;4.95;;;6.30;99.90;;;;;;5033171;28;20095;-90
2022/02/20 04:59:13;;;;;;;10.65;4.60;;;6.20;99.90;;;;;;5031473;28;20032;-90
2022/02/20 05:01:39;;;;;;;10.85;4.65;;;6.80;99.90;;;;;;5032011;28;20053;-90
2022/02/20 05:04:06;;;;;;;5.95;3.88;;;6.20;99.90;;;;;;5032808;28;20498;-90
2022/02/20 05:06:31;;;;;;;7.97;3.72;;;6.60;99.90;;;;;;5032387;28;20032;-91
2022/02/20 05:08:57;;;;;;;6.65;3.85;;;6.30;99.90;;;;;;5031630;28;20112;-90
2022/02/20 05:11:24;;;;;;;7.63;3.65;;;6.30;99.90;;;;;;5032904;28;20064;-91
2022/02/20 05:13:58;;;;;;;11.07;3.80;;;6.40;99.90;;;;;;5032253;28;20029;-90
2022/02/20 05:16:24;;;;;;;8.57;4.00;;;6.30;99.90;;;;;;5031903;28;20075;-90
2022/02/20 05:18:51;;;;;;;9.75;3.40;;;6.30;99.90;;;;;;5017088;28;20497;-91
2022/02/20 05:21:17;;;;;;;11.93;3.83;;;6.30;99.90;;;;;;5032258;28;20032;-90
2022/02/20 05:23:43;;;;;;;10.18;4.00;;;6.60;99.90;;;;;;5033164;28;20032;-90
2022/02/20 05:26:08;;;;;;;9.32;3.72;;;6.40;99.90;;;;;;5016851;28;20386;-90
2022/02/20 05:28:34;;;;;;;13.02;6.20;;;6.60;99.90;;;;;;5015615;28;20028;-90
2022/02/20 05:31:00;;;;;;;10.55;5.90;;;6.40;99.90;;;;;;5031442;28;20112;-91
2022/02/20 05:33:26;;;;;;;10.85;5.30;;;6.30;99.90;;;;;;5015626;28;20163;-90
2022/02/20 05:35:51;;;;;;;16.13;7.15;;;6.60;99.90;;;;;;5032424;28;20021;-90
2022/02/20 05:38:17;;;;;;;13.80;6.65;;;6.30;99.90;;;;;;5032314;28;20504;-90
2022/02/20 05:40:43;;;;;;;11.93;6.78;;;6.00;99.90;;;;;;5032032;28;20096;-90
2022/02/20 05:43:10;;;;;;;15.68;7.43;;;6.60;99.90;;;;;;5031936;28;21622;-90
2022/02/20 05:45:35;;;;;;;14.82;8.38;;;6.10;99.90;;;;;;5031454;28;20048;-90
2022/02/20 05:48:03;;;;;;;12.02;7.15;;;6.00;99.90;;;;;;5014852;28;20393;-89
2022/02/20 05:50:29;;;;;;;14.15;8.18;;;5.90;99.90;;;;;;5030602;28;20029;-90
2022/02/20 05:52:55;;;;;;;13.63;8.00;;;6.00;99.90;;;;;;5031500;28;20033;-90
2022/02/20 05:55:20;;;;;;;13.18;8.38;;;6.20;99.90;;;;;;5017052;28;20021;-90
2022/02/20 05:57:51;;;;;;;15.65;7.85;;;6.30;99.90;;;;;;5016628;28;20029;-90
2022/02/20 06:00:19;;;;;;;12.48;6.95;;;5.70;99.90;;;;;;5015837;28;20033;-91
2022/02/20 06:02:45;;;;;;;14.82;7.35;;;6.30;99.90;;;;;;5010837;28;20030;-90
2022/02/20 06:05:11;;;;;;;14.05;8.85;;;6.00;99.90;;;;;;5015351;28;20037;-91
2022/02/20 06:07:38;;;;;;;16.10;8.55;;;6.00;99.90;;;;;;5015207;28;20116;-90
2022/02/20 06:10:04;;;;;;;15.38;9.48;;;6.20;99.90;;;;;;5031253;28;20017;-90
2022/02/20 06:12:30;;;;;;;15.80;10.05;;;5.80;99.90;;;;;;5031158;28;20044;-90
2022/02/20 06:14:55;;;;;;;16.00;9.57;;;6.20;99.90;;;;;;5031963;28;20022;-90
2022/02/20 06:17:21;;;;;;;17.65;10.27;;;6.20;99.90;;;;;;5031974;28;20513;-90
2022/02/20 06:19:47;;;;;;;14.77;8.57;;;5.90;99.90;;;;;;5032000;28;20436;-90
2022/02/20 06:22:12;;;;;;;12.32;8.60;;;6.10;99.90;;;;;;5018851;28;20112;-89
2022/02/20 06:24:38;;;;;;;12.45;8.57;;;6.70;99.90;;;;;;5019101;28;20026;-90
2022/02/20 06:27:05;;;;;;;12.70;7.70;;;6.10;99.90;;;;;;5035182;28;20478;-90
2022/02/20 06:29:31;;;;;;;15.10;7.60;;;6.50;99.90;;;;;;5017833;28;20494;-89
2022/02/20 06:31:57;;;;;;;11.48;7.07;;;6.30;99.90;;;;;;5020169;28;20049;-90
2022/02/20 06:34:22;;;;;;;11.48;6.45;;;6.10;99.90;;;;;;5019048;28;20032;-90
2022/02/20 06:36:48;;;;;;;11.57;6.18;;;6.40;99.90;;;;;;5017527;28;20060;-90
2022/02/20 06:39:13;;;;;;;10.48;5.93;;;6.40;99.90;;;;;;5035447;28;20021;-90
2022/02/20 06:41:39;;;;;;;14.00;6.10;;;6.10;99.90;;;;;;5035322;28;20079;-90
2022/02/20 06:44:05;;;;;;;11.90;5.53;;;6.40;99.90;;;;;;5035363;28;20517;-90
2022/02/20 06:46:32;;;;;;;11.13;6.25;;;6.40;99.90;;;;;;5034882;28;20026;-90
2022/02/20 06:48:57;;;;;;;11.00;6.57;;;5.90;99.90;;;;;;5034970;28;20068;-90
2022/02/20 06:51:23;;;;;;;11.32;6.82;;;6.40;99.90;;;;;;5018109;28;20550;-90
2022/02/20 06:53:48;;;;;;;12.32;6.18;;;6.00;99.90;;;;;;5035558;28;20116;-90
2022/02/20 06:56:14;;;;;;;10.25;6.45;;;6.60;99.90;;;;;;5033122;28;20022;-90
2022/02/20 06:58:40;;;;;;;11.45;6.25;;;6.40;99.90;;;;;;5035344;28;20029;-90
2022/02/20 07:01:06;;;;;;;11.10;6.45;;;6.10;99.90;;;;;;5018084;28;20108;-90
2022/02/20 07:03:32;;;;;;;11.65;7.05;;;6.10;99.90;;;;;;5034783;28;20037;-90
2022/02/20 07:05:58;;;;;;;15.85;7.43;;;6.70;99.90;;;;;;5034653;28;20482;-90
2022/02/20 07:08:23;;;;;;;14.23;7.78;;;6.60;99.90;;;;;;5017893;28;20087;-91
2022/02/20 07:10:49;;;;;;;13.43;7.65;;;7.10;99.90;;;;;;5020150;28;20033;-90
2022/02/20 07:13:14;;;;;;;13.85;6.82;;;7.10;99.90;;;;;;5034712;28;20041;-90
2022/02/20 07:15:40;;;;;;;13.23;6.68;;;6.80;99.90;;;;;;5034549;28;20022;-90
2022/02/20 07:18:07;;;;;;;13.30;6.70;;;6.50;99.90;;;;;;5034299;28;20037;-90
2022/02/20 07:20:33;;;;;;;9.52;6.03;;;6.40;99.90;;;;;;5035414;28;20390;-90
2022/02/20 07:22:58;;;;;;;12.60;6.32;;;6.50;99.90;;;;;;5018274;28;20039;-90
2022/02/20 07:25:24;;;;;;;12.45;6.28;;;6.90;99.90;;;;;;5017375;28;20033;-90
2022/02/20 07:27:53;;;;;;;9.70;6.47;;;6.60;99.90;;;;;;5034293;28;20034;-91
2022/02/20 07:30:20;;;;;;;10.90;5.97;;;6.80;99.90;;;;;;5034533;28;20033;-90
2022/02/20 07:32:45;;;;;;;11.05;5.25;;;6.70;99.90;;;;;;5033548;28;20059;-90
2022/02/20 07:35:11;;;;;;;10.98;5.25;;;7.20;99.90;;;;;;5034377;28;20026;-91
2022/02/20 07:37:37;;;;;;;11.48;5.00;;;6.90;99.90;;;;;;5033957;28;20060;-90
2022/02/20 07:40:04;;;;;;;10.40;4.85;;;7.10;99.90;;;;;;5033609;28;20032;-91
2022/02/20 07:42:30;;;;;;;9.10;4.88;;;7.00;99.90;;;;;;5033847;28;20410;-90
2022/02/20 07:44:55;;;;;;;8.75;4.75;;;7.30;99.90;;;;;;5032856;28;20025;-90
2022/02/20 07:47:21;;;;;;;12.02;5.10;;;7.10;99.90;;;;;;5033983;28;20025;-91
2022/02/20 07:49:47;;;;;;;9.18;4.90;;;7.40;99.90;;;;;;5034242;28;20037;-90
2022/02/20 07:52:13;;;;;;;9.77;5.40;;;7.50;99.90;;;;;;5033698;28;20120;-90
2022/02/20 07:54:38;;;;;;;9.70;5.57;;;7.60;99.90;;;;;;5033338;28;20030;-90
2022/02/20 07:57:04;;;;;;;11.65;5.03;;;8.00;99.90;;;;;;5034380;28;20033;-91
2022/02/20 07:59:30;;;;;;;8.90;5.18;;;7.90;99.90;;;;;;5018364;28;20022;-90
2022/02/20 08:01:55;;;;;;;8.38;4.88;;;7.80;99.90;;;;;;5033324;28;20111;-91
2022/02/20 08:04:21;;;;;;;10.65;5.00;;;7.90;99.90;;;;;;5034179;28;20025;-92
2022/02/20 08:06:47;;;;;;;9.95;5.10;;;8.00;99.90;;;;;;5034217;28;20120;-93
2022/02/20 08:09:12;;;;;;;7.43;4.82;;;8.10;99.90;;;;;;5016149;28;20029;-92
2022/02/20 08:11:38;;;;;;;7.80;4.78;;;7.90;99.90;;;;;;5034585;28;20052;-92
2022/02/20 08:14:05;;;;;;;10.75;6.30;;;7.60;99.90;;;;;;5033505;28;20608;-92
2022/02/20 08:16:31;;;;;;;10.35;5.32;;;7.70;99.90;;;;;;5033926;28;20065;-92
2022/02/20 08:18:57;;;;;;;8.35;4.88;;;7.90;99.90;;;;;;5033896;28;20100;-92
2022/02/20 08:21:23;;;;;;;9.18;4.93;;;7.80;99.90;;;;;;5034125;28;20486;-93
2022/02/20 08:23:54;;;;;;;9.35;4.38;;;7.80;99.90;;;;;;5033878;28;20474;-92
2022/02/20 08:26:22;;;;;;;9.05;4.60;;;7.70;99.90;;;;;;5033884;28;20033;-93
2022/02/20 08:28:48;;;;;;;8.63;4.35;;;7.70;99.90;;;;;;5033933;28;20516;-92
2022/02/20 08:31:14;;;;;;;6.15;4.00;;;7.80;99.90;;;;;;5016536;28;20021;-92
2022/02/20 08:33:40;;;;;;;9.20;4.25;;;8.10;99.90;;;;;;5033685;28;20031;-92
2022/02/20 08:36:06;;;;;;;11.63;4.70;;;8.30;99.90;;;;;;5015863;28;20018;-92
2022/02/20 08:38:32;;;;;;;8.30;4.22;;;8.20;99.90;;;;;;5034201;28;20045;-92
2022/02/20 08:40:58;;;;;;;9.35;3.88;;;8.10;99.90;;;;;;5033155;28;20489;-93
2022/02/20 08:43:26;;;;;;;7.88;4.55;;;8.20;99.90;;;;;;5032793;28;20064;-93
2022/02/20 08:45:53;;;;;;;8.18;4.20;;;8.20;99.90;;;;;;5032935;28;20033;-92
2022/02/20 08:48:18;;;;;;;9.18;4.20;;;8.30;99.90;;;;;;5016508;28;20112;-93
2022/02/20 08:50:44;;;;;;;12.60;4.47;;;8.30;99.90;;;;;;5034210;28;20061;-93
2022/02/20 08:53:11;;;;;;;11.13;4.00;;;8.20;99.90;;;;;;5016951;28;20088;-93
2022/02/20 08:55:37;;;;;;;7.40;3.65;;;8.20;99.90;;;;;;5018241;28;20482;-93
2022/02/20 08:58:03;;;;;;;8.23;3.83;;;8.20;99.90;;;;;;5033142;28;20087;-93
2022/02/20 09:00:29;;;;;;;11.40;3.78;;;8.30;99.90;;;;;;5033015;28;20557;-93
2022/02/20 09:02:54;;;;;;;8.85;3.70;;;8.50;99.90;;;;;;5033766;28;20045;-93
2022/02/20 09:05:20;;;;;;;8.30;3.90;;;8.60;99.90;;;;;;5033110;28;20040;-93
2022/02/20 09:07:46;;;;;;;8.10;3.67;;;8.60;99.90;;;;;;5032419;28;20029;-93
2022/02/20 09:10:12;;;;;;;6.07;3.38;;;8.60;99.90;;;;;;5032711;28;20512;-93
2022/02/20 09:12:38;;;;;;;8.60;3.50;;;8.60;1.00;;;;;;5032762;28;20044;-93
2022/02/20 09:15:06;;;;;;;10.85;3.50;;;9.20;99.90;;;;;;5015123;28;20478;-93
2022/02/20 09:17:32;;;;;;;9.25;3.38;;;8.90;99.90;;;;;;5033976;28;20074;-93
2022/02/20 09:20:01;;;;;;;5.50;3.28;;;9.40;99.90;;;;;;5032748;28;20068;-93
2022/02/20 09:22:27;;;;;;;5.05;3.13;;;9.10;99.90;;;;;;5032555;28;20033;-93
2022/02/20 09:24:54;;;;;;;9.25;3.35;;;9.40;99.90;;;;;;5035299;28;20036;-93
2022/02/20 09:27:21;;;;;;;8.73;3.72;;;9.00;99.90;;;;;;5032587;28;20108;-93
2022/02/20 09:29:47;;;;;;;8.48;4.43;;;9.00;99.90;;;;;;5033079;28;20022;-93
2022/02/20 09:32:12;;;;;;;8.18;4.47;;;9.30;99.90;;;;;;5032827;28;20045;-93
2022/02/20 09:34:38;;;;;;;7.72;3.45;;;9.80;99.90;;;;;;5032333;28;20040;-92
2022/02/20 09:37:06;;;;;;;10.30;3.75;;;9.60;99.90;;;;;;5032092;28;20068;-92
2022/02/20 09:39:32;;;;;;;7.50;3.75;;;9.30;99.90;;;;;;5015994;28;20040;-93
2022/02/20 09:41:59;;;;;;;9.40;4.00;;;9.50;99.90;;;;;;5015012;28;20029;-92
2022/02/20 09:44:27;;;;;;;8.75;3.85;;;9.40;99.90;;;;;;5015517;28;20116;-92
2022/02/20 09:46:55;;;;;;;6.50;3.67;;;9.50;99.90;;;;;;5032274;28;20075;-92
2022/02/20 09:49:28;;;;;;;9.63;4.45;;;9.60;99.90;;;;;;5015904;28;20028;-92
2022/02/20 09:51:55;;;;;;;11.27;4.45;;;9.70;99.90;;;;;;5031962;28;20073;-92
2022/02/20 09:54:21;;;;;;;9.18;3.75;;;9.90;99.90;;;;;;5014772;28;20021;-92
2022/02/20 09:56:47;;;;;;;8.52;4.00;;;10.10;99.90;;;;;;5014936;28;20124;-92
2022/02/20 09:59:13;;;;;;;6.70;3.50;;;10.10;99.90;;;;;;5032402;28;20120;-92
2022/02/20 10:02:05;;;;;;;8.20;3.47;;;10.00;99.90;;;;;;5017676;28;20025;-92
2022/02/20 10:04:44;;;;;;;4.47;2.75;;;10.10;99.90;;;;;;5016636;28;20033;-92
2022/02/20 10:07:36;;;;;;;8.43;3.20;;;10.20;99.90;;;;;;5031926;28;20041;-92
2022/02/20 10:10:28;;;;;;;4.22;2.85;;;10.40;99.90;;;;;;5015802;28;20026;-92
2022/02/20 10:13:03;;;;;;;6.13;2.65;;;10.30;99.90;;;;;;5031851;28;20052;-92
2022/02/20 10:15:35;;;;;;;5.53;2.13;;;10.70;1.00;;;;;;5032244;28;20033;-92
2022/02/20 10:18:13;;;;;;;5.47;2.60;;;10.20;1.00;;;;;;5032295;28;20049;-91
2022/02/20 10:20:39;;;;;;;6.13;3.08;;;10.30;99.90;;;;;;5031632;28;20439;-92
2022/02/20 10:23:09;;;;;;;7.35;3.58;;;10.20;99.90;;;;;;5031996;28;20116;-91
2022/02/20 10:25:35;;;;;;;9.43;4.15;;;10.30;99.90;;;;;;5015493;28;20112;-92
2022/02/20 10:28:05;;;;;;;8.13;3.88;;;10.40;99.90;;;;;;5031448;28;20493;-91
2022/02/20 10:30:32;;;;;;;9.63;3.55;;;10.30;99.90;;;;;;5015501;28;20032;-92
2022/02/20 10:33:10;;;;;;;11.00;3.40;;;10.40;99.90;;;;;;5014251;28;20073;-91
2022/02/20 10:35:38;;;;;;;7.70;3.10;;;10.40;99.90;;;;;;5027019;28;20063;-91
2022/02/20 10:38:13;;;;;;;7.45;2.97;;;10.50;99.90;;;;;;5031224;28;20067;-92
2022/02/20 10:40:40;;;;;;;5.07;2.25;;;10.90;99.90;;;;;;5031666;28;20082;-92
2022/02/20 10:43:08;;;;;;;7.78;2.80;;;11.40;99.90;;;;;;5015107;28;20029;-92
2022/02/20 10:45:36;;;;;;;6.63;2.55;;;12.10;99.90;;;;;;5031627;28;20037;-92
2022/02/20 10:48:04;;;;;;;5.85;2.60;;;12.50;99.90;;;;;;5013822;28;20505;-92
2022/02/20 10:50:32;;;;;;;4.75;2.40;;;12.30;99.90;;;;;;5028835;28;20055;-92
2022/02/20 10:53:06;;;;;;;5.97;2.67;;;12.30;99.90;;;;;;5031489;28;20037;-91
2022/02/20 10:55:51;;;;;;;7.03;2.55;;;12.00;99.90;;;;;;5031101;28;20026;-91
2022/02/20 10:58:27;;;;;;;10.15;3.05;;;12.00;99.90;;;;;;5031388;28;20033;-91
2022/02/20 11:00:55;;;;;;;8.05;2.50;;;12.30;99.90;;;;;;5031270;28;20034;-92
2022/02/20 11:03:23;;;;;;;7.35;2.70;;;12.70;99.90;;;;;;5031451;28;20022;-92
2022/02/20 11:05:49;;;;;;;5.18;2.35;;;12.70;99.90;;;;;;5032025;28;20025;-91
2022/02/20 11:08:18;;;;;;;4.97;1.95;;;12.90;99.90;;;;;;5033912;28;20029;-92
2022/02/20 11:10:45;;;;;;;6.80;1.65;;;12.70;99.90;;;;;;5034504;28;20022;-91
2022/02/20 11:13:12;;;;;;;8.70;2.25;;;13.20;99.90;;;;;;5034866;28;20056;-92
2022/02/20 11:15:39;;;;;;;5.53;2.22;;;14.00;99.90;;;;;;5018048;28;20116;-91
2022/02/20 11:18:07;;;;;;;3.72;2.20;;;14.80;99.90;;;;;;5034798;28;20025;-92
2022/02/20 11:20:37;;;;;;;2.45;1.58;;;15.20;99.90;;;;;;5035160;28;20060;-92
2022/02/20 11:23:05;;;;;;;2.47;1.40;;;17.20;99.90;;;;;;5018409;28;20064;-93
2022/02/20 11:25:32;;;;;;;4.18;1.30;;;17.70;99.90;;;;;;5034846;28;20033;-92
2022/02/20 11:27:59;;;;;;;4.50;1.38;;;17.20;99.90;;;;;;5034486;28;20490;-92
2022/02/20 11:30:26;;;;;;;3.05;1.25;;;18.00;99.90;;;;;;5034410;28;20033;-93
2022/02/20 11:32:54;;;;;;;2.30;1.33;;;20.00;99.90;;;;;;5033487;28;20072;-93
2022/02/20 11:35:20;;;;;;;4.70;1.52;;;19.60;99.90;;;;;;5034874;28;20063;-93
2022/02/20 11:37:48;;;;;;;1.75;1.05;;;19.80;99.90;;;;;;5034037;28;20088;-92
2022/02/20 11:40:16;;;;;;;2.50;1.60;;;19.80;99.90;;;;;;5017953;28;20049;-93
2022/02/20 11:43:00;;;;;;;2.95;1.52;;;21.40;99.90;;;;;;5034265;28;20032;-93
2022/02/20 11:45:27;;;;;;;2.85;1.50;;;20.50;99.90;;;;;;5034231;28;20063;-93
2022/02/20 11:48:03;;;;;;;1.85;1.08;;;20.10;99.90;;;;;;5016676;28;20397;-93
2022/02/20 11:50:29;;;;;;;2.45;1.35;;;20.30;99.90;;;;;;5032764;28;20025;-93
2022/02/20 11:52:59;;;;;;;5.72;1.30;;;20.00;99.90;;;;;;5034169;28;20048;-94
2022/02/20 11:55:32;;;;;;;8.43;7.55;;;20.20;99.90;;;;;;5017455;28;20040;-93
2022/02/20 11:58:21;;;;;;;3.00;1.30;;;19.80;99.90;;;;;;5034060;28;20033;-92
2022/02/20 12:01:08;;;;;;;2.25;1.23;;;20.20;99.90;;;;;;5033780;28;20056;-92
2022/02/20 12:03:44;;;;;;;1.00;0.90;;;20.40;99.90;;;;;;5004100;28;20486;-93
2022/02/20 12:06:10;;;;;;;1.95;0.80;;;19.70;99.90;;;;;;5033655;28;20562;-92
2022/02/20 12:08:47;;;;;;;1.55;0.82;;;21.30;99.90;;;;;;5034253;28;20025;-93
2022/02/20 12:11:16;;;;;;;1.10;0.65;;;21.30;99.90;;;;;;5033637;28;20040;-93
2022/02/20 12:13:58;;;;;;;1.88;0.60;;;20.70;99.90;;;;;;5033735;28;20041;-93
2022/02/20 12:16:38;;;;;;;0.77;0.30;;;21.20;99.90;;;;;;5033731;28;20028;-93
2022/02/20 12:19:25;;;;;;;0.63;0.40;;;22.50;99.90;;;;;;5016926;28;20130;-93
2022/02/20 12:21:55;;;;;;;1.10;0.40;;;23.60;99.90;;;;;;5033562;28;20113;-94
2022/02/20 12:24:24;;;;;;;0.80;0.65;;;23.40;99.90;;;;;;5018096;28;20029;-93
2022/02/20 12:27:00;;;;;;;1.35;0.63;;;23.30;99.90;;;;;;5033629;28;20053;-93
2022/02/20 12:29:37;;;;;;;1.75;0.63;;;22.90;99.90;;;;;;5033472;28;20039;-92
2022/02/20 12:32:21;;;;;;;2.00;1.17;;;23.60;99.90;;;;;;5033086;28;20025;-94
2022/02/20 12:34:50;;;;;;;3.40;1.23;;;23.70;99.90;;;;;;5033295;28;20128;-93
2022/02/20 12:37:18;;;;;;;1.33;1.05;;;23.00;99.90;;;;;;5016604;28;20454;-93
2022/02/20 12:39:45;;;;;;;3.10;2.80;;;22.60;99.90;;;;;;5018065;28;20076;-94
2022/02/20 12:42:11;;;;;;;0.90;0.70;;;22.20;99.90;;;;;;5034022;28;20041;-93
2022/02/20 12:44:41;;;;;;;1.25;0.70;;;21.70;99.90;;;;;;5033570;28;20497;-93
2022/02/20 12:47:07;;;;;;;0.85;0.77;;;22.80;99.90;;;;;;5032832;28;20095;-94
2022/02/20 12:49:41;;;;;;;1.83;0.90;;;22.70;99.90;;;;;;5032886;28;20029;-93
2022/02/20 12:52:09;;;;;;;1.13;0.80;;;23.20;99.90;;;;;;5032748;28;20057;-93